^^
Station Historical Data
Daily Summary for August 7, 2017 Units:  English    Metric   Both
« Previous Day
Next Day »
Daily Weekly Monthly Yearly Custom
  High: Low: Average:
Temperature: 67.2 °F 62.1 °F 64.2 °F
Dew Point: 63.3 °F 57.2 °F 61.1 °F
Humidity: 97% 74% 90%
Wind Speed: 2.0mph 0.0mph 0.2mph
Wind Gust: 6.0mph - -
Wind- - West
Pressure: 30.12 in 29.92 in -
Precipitation: 0.60 in    
Historical Graphs
 
 
Tabular Data for August 7, 2017
Time Temperature Dew Point Pressure Wind Wind Speed Wind Gust Humidity Rainfall Rate (Hourly) Conditions
00:00 65.9 °F 57.4 °F 30.12 in Calm   3.0 mph 74% 0.00 in CLR
00:15 65.3 °F 57.2 °F 30.12 in Calm   1.0 mph 75% 0.00 in CLR
00:30 64.9 °F 57.5 °F 30.12 in Calm   1.0 mph 77% 0.00 in CLR
00:45 65.2 °F 57.4 °F 30.12 in Calm   1.0 mph 76% 0.00 in CLR
01:00 64.5 °F 57.5 °F 30.12 in Calm     78% 0.00 in CLR
01:15 63.3 °F 58.4 °F 30.12 in Calm     84% 0.00 in CLR
01:30 63.0 °F 58.1 °F 30.12 in Calm     84% 0.00 in CLR
01:45 63.9 °F 57.9 °F 30.12 in Calm   1.0 mph 81% 0.00 in CLR
02:00 64.4 °F 57.7 °F 30.12 in Calm   1.0 mph 79% 0.00 in CLR
02:15 64.0 °F 57.7 °F 30.12 in Calm   2.0 mph 80% 0.00 in CLR
02:30 63.8 °F 57.9 °F 30.11 in Calm     81% 0.00 in CLR
02:45 63.0 °F 57.8 °F 30.11 in Calm     83% 0.00 in CLR
03:00 62.1 °F 57.5 °F 30.10 in Calm     85% 0.00 in CLR
03:15 62.2 °F 58.0 °F 30.10 in Calm     86% 0.00 in CLR
03:30 62.8 °F 58.2 °F 30.10 in Calm     85% 0.00 in CLR
03:45 63.1 °F 58.2 °F 30.10 in Calm     84% 0.00 in CLR
04:00 63.2 °F 58.6 °F 30.10 in Calm     85% 0.00 in CLR
04:15 62.6 °F 59.0 °F 30.11 in Calm   2.0 mph 88% 0.00 in SCT
04:30 63.8 °F 58.8 °F 30.10 in Calm   4.0 mph 84% 0.00 in SCT
04:45 64.1 °F 59.2 °F 30.10 in Calm     84% 0.00 in SCT
05:00 64.0 °F 59.4 °F 30.10 in Calm   1.0 mph 85% 0.00 in SCT
05:15 63.9 °F 59.6 °F 30.10 in Calm   1.0 mph 86% 0.00 in BKN
05:30 63.7 °F 59.8 °F 30.10 in Calm     87% 0.00 in BKN
05:45 63.3 °F 59.4 °F 30.11 in Calm     87% 0.00 in BKN
06:00 63.3 °F 59.7 °F 30.10 in Calm     88% 0.00 in BKN
06:15 63.6 °F 59.6 °F 30.10 in Calm     87% 0.00 in -RA
06:30 63.5 °F 59.6 °F 30.10 in Calm     87% 0.00 in -RA
06:45 63.9 °F 59.6 °F 30.10 in SW 1.0 mph 2.0 mph 86% 0.00 in -RA
07:00 63.7 °F 59.8 °F 30.10 in Calm   2.0 mph 87% 0.00 in -RA
07:15 63.9 °F 59.6 °F 30.11 in Calm     86% 0.00 in BKN
07:30 64.3 °F 60.0 °F 30.11 in Calm   1.0 mph 86% 0.00 in BKN
07:45 64.6 °F 60.3 °F 30.11 in Calm     86% 0.00 in BKN
08:00 64.9 °F 60.3 °F 30.10 in Calm     85% 0.00 in BKN
08:15 65.5 °F 60.9 °F 30.10 in Calm     85% 0.00 in BKN
08:45 66.2 °F 61.6 °F 30.09 in Calm   1.0 mph 85% 0.00 in BKN
09:00 66.4 °F 61.1 °F 30.10 in Calm     83% 0.00 in BKN
09:30 66.2 °F 61.6 °F 30.10 in Calm     85% 0.00 in BKN
09:45 66.3 °F 61.3 °F 30.10 in Calm   1.0 mph 84% 0.00 in BKN
10:00 66.8 °F 61.5 °F 30.10 in Calm   1.0 mph 83% 0.00 in BKN
10:15 67.0 °F 62.0 °F 30.10 in Calm   1.0 mph 84% 0.00 in BKN
10:30 67.2 °F 62.5 °F 30.10 in SSW 1.0 mph 3.0 mph 85% 0.00 in BKN
10:45 67.1 °F 62.8 °F 30.10 in South 1.0 mph 4.0 mph 86% 0.00 in BKN
11:00 66.2 °F 62.5 °F 30.11 in SW 1.0 mph 6.0 mph 88% 0.00 in BKN
11:15 65.8 °F 62.5 °F 30.11 in Calm   1.0 mph 89% 0.01 in -RA
11:30 65.5 °F 62.8 °F 30.11 in Calm   1.0 mph 91% 0.02 in -RA
11:45 65.2 °F 62.8 °F 30.11 in Calm     92% 0.03 in -RA
12:00 65.1 °F 62.7 °F 30.10 in Calm   1.0 mph 92% 0.02 in -RA
12:15 65.0 °F 62.9 °F 30.10 in Calm   1.0 mph 93% 0.02 in -RA
12:30 64.7 °F 62.6 °F 30.10 in Calm   1.0 mph 93% 0.01 in -RA
12:45 64.5 °F 62.7 °F 30.09 in Calm   2.0 mph 94% 0.02 in -RA
13:00 64.3 °F 62.6 °F 30.09 in Calm   2.0 mph 94% 0.02 in -RA
13:15 64.0 °F 62.2 °F 30.08 in NNW 1.0 mph 2.0 mph 94% 0.01 in -RA
13:30 64.0 °F 62.2 °F 30.07 in Calm   2.0 mph 94% 0.01 in -RA
13:45 64.2 °F 62.8 °F 30.07 in Calm   2.0 mph 95% 0.00 in -RA
14:00 64.6 °F 63.1 °F 30.06 in Calm   3.0 mph 95% 0.00 in -RA
14:15 64.8 °F 63.3 °F 30.06 in Calm   1.0 mph 95% 0.02 in -RA
14:30 64.5 °F 63.0 °F 30.06 in Calm   3.0 mph 95% 0.08 in -RA
14:45 64.2 °F 62.7 °F 30.05 in NNW 1.0 mph 3.0 mph 95% 0.04 in -RA
15:00 64.1 °F 62.6 °F 30.05 in Calm   2.0 mph 95% 0.04 in -RA
15:15 63.9 °F 62.5 °F 30.03 in NW 1.0 mph 3.0 mph 95% 0.06 in -RA
15:30 63.5 °F 62.1 °F 30.03 in Calm   4.0 mph 95% 0.03 in -RA
15:45 63.4 °F 61.9 °F 30.04 in Calm   2.0 mph 95% 0.05 in -RA
16:00 63.6 °F 62.4 °F 30.04 in Calm   4.0 mph 96% 0.02 in -RA
16:15 63.5 °F 62.0 °F 30.03 in Calm   3.0 mph 95% 0.02 in -RA
16:30 63.9 °F 62.4 °F 30.01 in Calm   3.0 mph 95% 0.01 in -RA
16:45 64.2 °F 62.7 °F 30.00 in NW 1.0 mph 3.0 mph 95% 0.00 in -RA
17:00 64.4 °F 62.9 °F 30.00 in NNW 1.0 mph 3.0 mph 95% 0.01 in -RA
17:15 64.6 °F 63.1 °F 29.99 in NW 1.0 mph 3.0 mph 95% 0.01 in -RA
17:30 64.5 °F 63.0 °F 29.98 in North 2.0 mph 5.0 mph 95% 0.02 in -RA
17:45 64.1 °F 62.6 °F 29.98 in WNW 1.0 mph 4.0 mph 95% 0.00 in -RA
18:00 63.3 °F 61.6 °F 29.97 in ENE 2.0 mph 6.0 mph 94% 0.00 in -RA
18:15 63.2 °F 61.7 °F 29.98 in Calm   4.0 mph 95% 0.00 in -RA
18:30 63.3 °F 61.8 °F 29.97 in Calm   3.0 mph 95% 0.00 in -RA
18:45 63.4 °F 62.0 °F 29.97 in Calm   3.0 mph 95% 0.00 in -RA
19:00 63.6 °F 62.1 °F 29.97 in Calm   1.0 mph 95% 0.00 in -RA
19:15 63.9 °F 62.7 °F 29.96 in Calm   3.0 mph 96% 0.02 in RA
19:30 64.0 °F 62.8 °F 29.96 in NNW 1.0 mph 3.0 mph 96% 0.00 in BKN
19:45 64.1 °F 62.9 °F 29.96 in North 1.0 mph 2.0 mph 96% 0.00 in BKN
20:00 64.1 °F 62.9 °F 29.95 in Calm   2.0 mph 96% 0.00 in BKN
20:15 64.0 °F 62.8 °F 29.95 in Calm   2.0 mph 96% 0.00 in -RA
20:30 63.9 °F 62.7 °F 29.94 in WNW 1.0 mph 2.0 mph 96% 0.00 in -RA
20:45 63.8 °F 62.6 °F 29.95 in Calm   4.0 mph 96% 0.00 in -RA
21:00 63.7 °F 62.6 °F 29.95 in Calm   2.0 mph 96% 0.00 in -RA
21:15 63.6 °F 62.5 °F 29.95 in Calm   2.0 mph 96% 0.00 in BKN
21:30 63.7 °F 62.5 °F 29.95 in Calm   1.0 mph 96% 0.00 in BKN
21:45 63.7 °F 62.5 °F 29.95 in Calm   1.0 mph 96% 0.00 in BKN
22:00 63.7 °F 62.5 °F 29.95 in Calm     96% 0.00 in BKN
22:15 63.7 °F 62.6 °F 29.94 in Calm     96% 0.00 in OVC
22:30 63.8 °F 62.9 °F 29.94 in Calm   1.0 mph 97% 0.00 in OVC
22:45 63.8 °F 62.9 °F 29.94 in Calm     97% 0.00 in OVC
23:00 63.7 °F 62.5 °F 29.93 in Calm   1.0 mph 96% 0.00 in OVC
23:30 63.4 °F 62.2 °F 29.93 in Calm   2.0 mph 96% 0.00 in OVC
23:45 63.4 °F 62.5 °F 29.92 in Calm   2.0 mph 97% 0.00 in OVC
TarryTown NY Weather
Compliments of Weather Underground - 1.5 mb